Champion, Canada
Current Conditions -  °F | °C
As of 7:00 PM on Thursday 20 Nov 2014 (Local Time) from CYQL Reporting Station
Broken Clouds Broken Clouds  
Wind Chill: 29°   Ceiling: 23000
Heat Index: 37°   Visibility: 40mi
Dew Point: 30°   Wind: 15mph
Humidity: 75%   Direction: 230°SW
Pressure: 29.66"   Gusts: NA
Location:  50.22°N, 113.15°W
Report Text: CYQL 210200Z 23013KT 40SM FEW100 BKN230 03/M01 A2966 RMK AC2CI4 SLP085
Loading
Personal Weather Stations






























Interactive Weather Map New forecast layout! Learn more

10-Day Weather Forecast

Advertisements
Track Severe Weather on mobile